Time;durP1;ratioP1;P1;durP2;ratioP2;P2;SDS_P1;SDS_P2;PMS_P1;PMS_P2;Temp;Humidity;BMP_temperature;BMP_pressure;BME280_temperature;BME280_humidity;BME280_pressure;Samples;Min_cycle;Max_cycle;Signal;HPM_P1;HPM_P2
2021/06/13 00:08:29;;;;;;;6.03;3.58;;;15.60;99.90;;;;;;6743747;88;20185;-78
2021/06/13 00:18:30;;;;;;;5.93;3.43;;;15.50;99.90;;;;;;6741659;88;20267;-77
2021/06/13 00:28:31;;;;;;;8.30;4.10;;;15.30;99.90;;;;;;6740320;88;20665;-78
2021/06/13 00:38:32;;;;;;;9.95;4.18;;;15.20;99.90;;;;;;6739406;88;20228;-78
2021/06/13 00:48:32;;;;;;;10.50;5.37;;;15.10;99.90;;;;;;6739073;88;20325;-77
2021/06/13 00:58:33;;;;;;;12.90;6.03;;;14.90;99.90;;;;;;6738069;88;20212;-77
2021/06/13 01:08:46;;;;;;;13.35;6.65;;;14.60;99.90;;;;;;6740278;88;20209;-78
2021/06/13 01:18:52;;;;;;;12.37;7.20;;;14.40;99.90;;;;;;6739491;88;20321;-77
2021/06/13 01:29:00;;;;;;;11.75;6.35;;;14.30;99.90;;;;;;6735924;88;20226;-77
2021/06/13 01:39:09;;;;;;;9.73;5.20;;;14.30;99.90;;;;;;6739017;88;20254;-78
2021/06/13 01:49:11;;;;;;;12.98;4.78;;;14.10;99.90;;;;;;6739204;88;20925;-77
2021/06/13 01:59:13;;;;;;;11.55;5.28;;;14.00;99.90;;;;;;6739225;88;20321;-77
2021/06/13 02:09:14;;;;;;;10.07;5.00;;;13.70;99.90;;;;;;6739612;88;20474;-78
2021/06/13 02:19:25;;;;;;;8.95;4.87;;;13.50;99.90;;;;;;6746588;88;20188;-77
2021/06/13 02:29:27;;;;;;;10.18;5.12;;;13.50;99.90;;;;;;6750788;88;20201;-78
2021/06/13 02:39:28;;;;;;;8.63;5.03;;;13.40;99.90;;;;;;6750410;88;20229;-77
2021/06/13 02:49:29;;;;;;;13.48;5.50;;;13.30;99.90;;;;;;6750010;88;20202;-77
2021/06/13 02:59:43;;;;;;;10.27;5.10;;;13.20;99.90;;;;;;6741601;88;20255;-77
2021/06/13 03:09:44;;;;;;;16.25;5.40;;;13.20;99.90;;;;;;6741212;88;20189;-77
2021/06/13 03:19:47;;;;;;;10.27;4.95;;;12.90;99.90;;;;;;6739962;88;20255;-78
2021/06/13 03:29:49;;;;;;;11.50;5.43;;;12.90;99.90;;;;;;6740466;88;20197;-77
2021/06/13 03:39:50;;;;;;;13.48;5.72;;;12.90;99.90;;;;;;6742241;88;20210;-77
2021/06/13 03:49:51;;;;;;;11.88;5.62;;;12.80;99.90;;;;;;6741286;88;20198;-78
2021/06/13 03:59:53;;;;;;;17.77;5.78;;;12.90;99.90;;;;;;6741187;88;20672;-77
2021/06/13 04:09:53;;;;;;;10.93;5.50;;;12.90;99.90;;;;;;6742158;88;20728;-78
2021/06/13 04:19:55;;;;;;;12.27;6.33;;;12.80;99.90;;;;;;6741544;88;20180;-77
2021/06/13 04:30:00;;;;;;;11.50;6.18;;;12.90;99.90;;;;;;6740681;88;20578;-78
2021/06/13 04:40:02;;;;;;;14.27;7.03;;;12.80;99.90;;;;;;6741299;88;20212;-78
2021/06/13 04:50:05;;;;;;;11.20;5.87;;;12.90;99.90;;;;;;6741253;88;20194;-78
2021/06/13 05:00:06;;;;;;;15.00;6.68;;;12.90;99.90;;;;;;6741511;88;20368;-78
2021/06/13 05:10:09;;;;;;;13.00;6.40;;;13.10;99.90;;;;;;6741228;88;20196;-78
2021/06/13 05:20:11;;;;;;;12.73;6.85;;;13.30;99.90;;;;;;6740892;88;20205;-78
2021/06/13 05:30:12;;;;;;;12.52;7.05;;;13.40;99.90;;;;;;6740930;88;20269;-78
2021/06/13 05:40:14;;;;;;;12.40;6.90;;;13.70;99.90;;;;;;6740828;88;20190;-78
2021/06/13 05:50:15;;;;;;;16.70;7.07;;;14.20;99.90;;;;;;6738448;88;20786;-78
2021/06/13 06:00:25;;;;;;;14.38;6.57;;;14.60;99.90;;;;;;6736911;88;20243;-77
2021/06/13 06:10:27;;;;;;;15.45;5.85;;;14.70;99.90;;;;;;6735529;88;20707;-78
2021/06/13 06:20:30;;;;;;;13.77;5.97;;;14.90;99.90;;;;;;6736884;88;20335;-77
2021/06/13 06:30:31;;;;;;;13.70;5.37;;;15.60;99.90;;;;;;6741074;88;20197;-77
2021/06/13 06:40:31;;;;;;;11.63;5.07;;;16.60;99.90;;;;;;6740949;88;20230;-78
2021/06/13 06:50:32;;;;;;;9.65;4.10;;;16.90;99.90;;;;;;6739097;88;20242;-78
2021/06/13 07:00:33;;;;;;;12.23;3.03;;;17.40;99.90;;;;;;6739941;88;20193;-78
2021/06/13 07:10:33;;;;;;;5.25;2.60;;;18.90;99.90;;;;;;6742331;88;20257;-79
2021/06/13 07:20:35;;;;;;;5.78;2.80;;;20.00;99.10;;;;;;6744130;88;20193;-78
2021/06/13 07:30:36;;;;;;;6.60;2.72;;;20.80;97.30;;;;;;6739689;88;20193;-81
2021/06/13 07:40:38;;;;;;;7.30;2.95;;;21.30;96.80;;;;;;6742211;88;20194;-80
2021/06/13 07:50:41;;;;;;;8.60;3.00;;;21.50;95.10;;;;;;6751486;88;20624;-78
2021/06/13 08:00:41;;;;;;;8.02;3.20;;;21.60;95.10;;;;;;6745648;88;20228;-79
2021/06/13 08:10:42;;;;;;;7.13;3.03;;;22.20;93.20;;;;;;6753758;88;20212;-78
2021/06/13 08:20:43;;;;;;;9.57;2.60;;;22.80;92.10;;;;;;6743104;88;20188;-78
2021/06/13 08:30:43;;;;;;;8.67;2.93;;;22.90;91.00;;;;;;6737671;88;20176;-78
2021/06/13 08:40:44;;;;;;;6.68;2.45;;;23.00;89.30;;;;;;6739173;88;20198;-79
2021/06/13 08:50:45;;;;;;;8.23;2.78;;;23.60;85.10;;;;;;6744223;88;20937;-78
2021/06/13 09:00:47;;;;;;;7.70;2.58;;;24.30;85.40;;;;;;6737845;88;20184;-78
2021/06/13 09:10:48;;;;;;;5.55;2.40;;;24.50;81.60;;;;;;6735554;88;20235;-79
2021/06/13 09:20:48;;;;;;;6.03;2.60;;;25.00;82.10;;;;;;6736672;88;20178;-79
2021/06/13 09:30:51;;;;;;;6.72;2.45;;;25.10;78.40;;;;;;6733744;88;20216;-79
2021/06/13 09:40:54;;;;;;;9.40;2.70;;;25.90;79.10;;;;;;6734105;88;20247;-79
2021/06/13 09:50:57;;;;;;;9.47;2.50;;;26.30;73.60;;;;;;6731703;88;20248;-77
2021/06/13 10:01:09;;;;;;;7.03;2.45;;;26.90;73.40;;;;;;6728873;88;20269;-79
2021/06/13 10:11:09;;;;;;;8.23;2.90;;;27.80;70.70;;;;;;6717784;88;20208;-81
2021/06/13 10:21:12;;;;;;;5.70;2.60;;;26.80;69.70;;;;;;6717154;88;20238;-78
2021/06/13 10:31:13;;;;;;;5.93;2.60;;;27.50;69.20;;;;;;6721498;88;20216;-77
2021/06/13 10:41:14;;;;;;;4.80;2.42;;;27.40;67.80;;;;;;6719889;88;20212;-78
2021/06/13 10:51:33;;;;;;;5.05;2.37;;;27.40;65.80;;;;;;6720433;88;20196;-78
2021/06/13 11:01:38;;;;;;;8.68;2.50;;;28.30;64.70;;;;;;6718545;88;20336;-78
2021/06/13 11:11:41;;;;;;;4.55;2.55;;;27.80;63.40;;;;;;6718305;88;20685;-77
2021/06/13 11:21:42;;;;;;;6.40;2.65;;;28.90;61.90;;;;;;6718321;88;20738;-77
2021/06/13 11:31:47;;;;;;;10.13;2.70;;;28.80;63.30;;;;;;6718579;88;20277;-77
2021/06/13 11:41:49;;;;;;;10.10;2.97;;;28.80;62.90;;;;;;6720044;88;20301;-76
2021/06/13 11:51:58;;;;;;;5.57;2.60;;;28.70;64.40;;;;;;6736438;88;20208;-77
2021/06/13 12:02:01;;;;;;;6.43;2.70;;;29.70;62.20;;;;;;6734696;88;21160;-78
2021/06/13 12:12:04;;;;;;;8.73;3.30;;;29.60;60.80;;;;;;6733308;88;20214;-76
2021/06/13 12:22:40;;;;;;;6.28;3.00;;;29.70;60.30;;;;;;6729860;88;20184;-75
2021/06/13 12:32:50;;;;;;;10.10;3.30;;;30.70;58.70;;;;;;6738322;88;20317;-78
2021/06/13 12:42:51;;;;;;;6.57;3.08;;;31.10;57.70;;;;;;6737357;88;20195;-76
2021/06/13 12:52:54;;;;;;;7.93;2.83;;;30.90;58.00;;;;;;6734769;88;20209;-76
2021/06/13 13:03:15;;;;;;;7.60;2.78;;;31.10;58.40;;;;;;6731311;88;20190;-77
2021/06/13 13:13:26;;;;;;;6.30;2.72;;;30.70;57.40;;;;;;6755799;88;20197;-77
2021/06/13 13:23:37;;;;;;;7.83;2.53;;;30.60;57.90;;;;;;6749281;88;20208;-75
2021/06/13 13:33:40;;;;;;;8.75;2.80;;;30.50;56.80;;;;;;6754902;88;20596;-78
2021/06/13 13:43:56;;;;;;;9.00;2.53;;;31.30;54.70;;;;;;6732720;88;20198;-77
2021/06/13 13:53:56;;;;;;;6.53;2.75;;;31.10;54.60;;;;;;6733699;88;20310;-77
2021/06/13 14:03:57;;;;;;;9.40;2.40;;;30.40;54.30;;;;;;6730262;88;20193;-76
2021/06/13 14:13:59;;;;;;;7.63;2.50;;;30.10;53.70;;;;;;6732114;88;20242;-76
2021/06/13 14:24:00;;;;;;;7.47;2.60;;;30.10;54.10;;;;;;6732358;88;20310;-77
2021/06/13 14:34:00;;;;;;;5.90;2.43;;;30.20;53.20;;;;;;6726366;88;20181;-75
2021/06/13 14:44:01;;;;;;;6.03;2.62;;;30.20;53.20;;;;;;6731971;88;20379;-75
2021/06/13 14:54:01;;;;;;;5.60;2.43;;;30.00;52.90;;;;;;6732846;88;20206;-75
2021/06/13 15:04:03;;;;;;;6.87;2.60;;;29.90;53.60;;;;;;6732857;88;20216;-77
2021/06/13 15:14:04;;;;;;;5.30;2.40;;;30.20;52.90;;;;;;6733282;88;20205;-78
2021/06/13 15:24:07;;;;;;;6.97;2.37;;;29.50;53.40;;;;;;6735368;88;20609;-77
2021/06/13 15:34:15;;;;;;;6.55;2.60;;;30.10;54.30;;;;;;6736056;88;20196;-76
2021/06/13 15:44:20;;;;;;;4.95;2.53;;;29.90;52.90;;;;;;6736239;88;20185;-78
2021/06/13 15:54:25;;;;;;;5.45;2.33;;;29.60;53.40;;;;;;6735817;88;20715;-78
2021/06/13 16:04:26;;;;;;;8.13;2.60;;;30.00;53.40;;;;;;6753959;77;20203;-75
2021/06/13 16:14:26;;;;;;;7.77;3.00;;;30.10;53.90;;;;;;6751317;87;20177;-74
2021/06/13 16:24:27;;;;;;;5.47;2.60;;;30.70;53.40;;;;;;6748258;88;20189;-76
2021/06/13 16:34:27;;;;;;;7.72;4.12;;;28.90;54.90;;;;;;6747228;88;20684;-75
2021/06/13 16:44:29;;;;;;;5.93;2.70;;;28.80;54.80;;;;;;6747749;88;20639;-76
2021/06/13 16:54:29;;;;;;;6.70;2.80;;;28.30;55.90;;;;;;6747525;88;20700;-77
2021/06/13 17:04:30;;;;;;;5.53;2.60;;;28.20;56.10;;;;;;6751903;88;20226;-79
2021/06/13 17:14:31;;;;;;;6.05;2.72;;;28.60;55.50;;;;;;6755005;88;20193;-76
2021/06/13 17:24:32;;;;;;;9.45;3.00;;;29.90;54.40;;;;;;6747035;88;20229;-76
2021/06/13 17:34:33;;;;;;;7.60;3.03;;;29.40;54.20;;;;;;6749016;88;20237;-76
2021/06/13 17:44:33;;;;;;;6.30;3.50;;;28.10;55.70;;;;;;6747907;88;20318;-76
2021/06/13 17:54:34;;;;;;;7.75;3.25;;;27.10;58.20;;;;;;6733947;88;20678;-77
2021/06/13 18:04:36;;;;;;;5.82;2.72;;;28.40;56.20;;;;;;6742089;88;20348;-76
2021/06/13 18:14:36;;;;;;;5.65;2.78;;;28.30;56.00;;;;;;6743976;88;20623;-75
2021/06/13 18:24:39;;;;;;;9.85;2.90;;;30.30;53.80;;;;;;6746639;88;20228;-76
2021/06/13 18:34:39;;;;;;;5.70;2.80;;;30.80;52.90;;;;;;6741608;88;20619;-76
2021/06/13 18:44:40;;;;;;;7.65;3.17;;;29.90;53.60;;;;;;6736775;88;20187;-76
2021/06/13 18:54:40;;;;;;;7.18;3.20;;;28.30;55.70;;;;;;6746618;88;20217;-76
2021/06/13 19:04:41;;;;;;;8.13;3.10;;;27.00;56.70;;;;;;6750525;88;20622;-76
2021/06/13 19:14:42;;;;;;;6.40;3.40;;;26.00;58.40;;;;;;6750275;88;20243;-76
2021/06/13 19:24:43;;;;;;;6.93;2.80;;;25.10;60.20;;;;;;6745237;88;20200;-77
2021/06/13 19:34:44;;;;;;;10.00;5.28;;;24.30;62.70;;;;;;6747966;88;20292;-76
2021/06/13 19:44:45;;;;;;;10.25;4.85;;;23.40;65.10;;;;;;6738702;88;20247;-76
2021/06/13 19:54:46;;;;;;;11.63;6.00;;;22.60;67.40;;;;;;6752847;88;20204;-76
2021/06/13 20:04:46;;;;;;;9.30;4.97;;;22.20;68.20;;;;;;6753897;88;20701;-77
2021/06/13 20:14:47;;;;;;;8.88;4.20;;;21.80;71.00;;;;;;6750958;88;20703;-78
2021/06/13 20:24:48;;;;;;;8.18;3.40;;;21.40;72.70;;;;;;6743227;88;20735;-76
2021/06/13 20:34:49;;;;;;;9.02;5.07;;;21.20;71.70;;;;;;6752375;88;20276;-76
2021/06/13 20:44:53;;;;;;;6.75;3.80;;;21.00;74.10;;;;;;6750587;88;20190;-78
2021/06/13 20:54:53;;;;;;;9.10;3.90;;;20.80;75.10;;;;;;6750283;88;20300;-76
2021/06/13 21:04:54;;;;;;;7.25;3.28;;;20.40;77.60;;;;;;6756613;88;20808;-76
2021/06/13 21:15:01;;;;;;;5.10;2.90;;;19.90;81.20;;;;;;6759331;88;20176;-76
2021/06/13 21:25:03;;;;;;;7.22;3.58;;;19.30;86.40;;;;;;6755051;88;20315;-76
2021/06/13 21:35:04;;;;;;;8.43;3.40;;;19.00;90.90;;;;;;6758341;88;20206;-76
2021/06/13 21:45:06;;;;;;;8.50;3.65;;;18.70;94.00;;;;;;6759436;88;20363;-77
2021/06/13 21:55:12;;;;;;;7.30;3.80;;;18.60;95.80;;;;;;6759895;88;20197;-78
2021/06/13 22:05:14;;;;;;;7.87;3.67;;;18.20;98.00;;;;;;6760617;76;20210;-78
2021/06/13 22:15:15;;;;;;;9.43;3.70;;;18.00;99.90;;;;;;6737286;87;20187;-77
2021/06/13 22:25:16;;;;;;;6.90;3.35;;;17.70;99.90;;;;;;6729595;88;20243;-76
2021/06/13 22:35:18;;;;;;;6.53;3.45;;;17.50;99.90;;;;;;6730964;88;20215;-77
2021/06/13 22:45:21;;;;;;;7.82;3.62;;;17.30;99.90;;;;;;6730185;88;20219;-78
2021/06/13 22:55:23;;;;;;;9.90;3.80;;;17.10;99.90;;;;;;6735786;88;20920;-77
2021/06/13 23:05:24;;;;;;;8.15;3.70;;;17.10;99.90;;;;;;6739643;87;20221;-78
2021/06/13 23:15:25;;;;;;;9.95;3.75;;;16.90;99.90;;;;;;6749574;87;20246;-78
2021/06/13 23:25:26;;;;;;;10.18;4.07;;;16.60;99.90;;;;;;6744300;87;20220;-76
2021/06/13 23:35:27;;;;;;;8.02;3.72;;;16.50;99.90;;;;;;6748718;87;20195;-77
2021/06/13 23:45:27;;;;;;;9.93;4.03;;;16.30;99.90;;;;;;6748753;87;20192;-76
2021/06/13 23:55:28;;;;;;;11.30;4.53;;;16.10;99.90;;;;;;6751757;87;20213;-75
